• vieta
  • image
  • image
  • image
mod_vvisit_countermod_vvisit_countermod_vvisit_countermod_vvisit_countermod_vvisit_countermod_vvisit_counter
mod_vvisit_counterŠiandien229
mod_vvisit_counterVakar592
mod_vvisit_counterŠią savaitę3092
mod_vvisit_counterPraėjusią savaitę4997
mod_vvisit_counterŠį mėnesį13998
mod_vvisit_counterPraėjusį mėnesį19158
mod_vvisit_counterViso758048

Mes turime: 18 svečius online
Jūsų IP: 54.81.110.114
 , 
Šiandien: Spa 21, 2017
Oro uostas / Verslui

Verslas


Transporto priemonės, kuriomis kroviniai iš tarptautinio Šiaulių oro uosto gabenami į užsienio šalis:

 

 

01

 

08

 

02

 s crs

07

 

 

03

06

 

04

 

 

05

 

Šiandien

Šeštadienis, 21 Spalis 2017

Orų prognozė

Šiauliai °C
   

Orų prognozė aviacijai

[source: ADDS]
METAR
EYSA 210420Z 07007KT 9999 -RA FEW042 OVC048 06/05 Q1019 BLU NOSIG =
TAF
TAF EYSA 210208Z 2103/2112 08010KT 7000 BKN015 TEMPO 2103/2106 4000 SHRA BKN010 BKN015CB TEMPO 2106/2109 09020KT 3000 SHRA BR BKN005 BKN015CB =
SR / SS: 05:10 / 15:14 UTC (EYSA 2017-10-21)

Paieška

Lankytojai

Mes turime 17 svečius online

tic logo lt